createdAt,value
2017-09-06T00:00:17.977Z,934.71
2017-09-06T00:00:46.012Z,934.7
2017-09-06T00:01:14.252Z,934.7
2017-09-06T00:01:42.453Z,934.7
2017-09-06T00:02:10.380Z,934.66
2017-09-06T00:02:38.455Z,934.66
2017-09-06T00:03:06.706Z,934.65
2017-09-06T00:03:35.071Z,934.67
2017-09-06T00:04:03.138Z,934.67
2017-09-06T00:04:31.143Z,934.67
2017-09-06T00:04:59.195Z,934.69
2017-09-06T00:05:27.608Z,934.66
2017-09-06T00:05:55.630Z,934.66
2017-09-06T00:06:23.816Z,934.7
2017-09-06T00:06:52.079Z,934.67
2017-09-06T00:07:20.245Z,934.7
2017-09-06T00:07:48.340Z,934.67
2017-09-06T00:08:16.524Z,934.69
2017-09-06T00:08:44.654Z,934.7
2017-09-06T00:09:12.790Z,934.71
2017-09-06T00:09:40.970Z,934.73
2017-09-06T00:10:08.910Z,934.74
2017-09-06T00:10:37.068Z,934.71
2017-09-06T00:11:05.221Z,934.74
2017-09-06T00:11:33.296Z,934.75
2017-09-06T00:12:01.471Z,934.77
2017-09-06T00:12:29.548Z,934.78
2017-09-06T00:12:57.510Z,934.82
2017-09-06T00:13:25.790Z,934.81
2017-09-06T00:13:53.758Z,934.78
2017-09-06T00:14:21.877Z,934.82
2017-09-06T00:14:50.078Z,934.79
2017-09-06T00:15:18.254Z,934.8
2017-09-06T00:15:46.283Z,934.8
2017-09-06T00:16:14.307Z,934.8
2017-09-06T00:16:42.608Z,934.84
2017-09-06T00:17:11.577Z,934.8
2017-09-06T00:17:39.964Z,934.82
2017-09-06T00:18:07.844Z,934.81
2017-09-06T00:18:36.000Z,934.81
2017-09-06T00:19:03.809Z,934.82
2017-09-06T00:19:31.973Z,934.84
2017-09-06T00:20:00.146Z,934.8
2017-09-06T00:20:28.199Z,934.85
2017-09-06T00:20:56.172Z,934.83
2017-09-06T00:21:24.283Z,934.83
2017-09-06T00:21:52.313Z,934.87
2017-09-06T00:22:20.453Z,934.85
2017-09-06T00:22:48.611Z,934.89
2017-09-06T00:23:16.652Z,934.87
2017-09-06T00:23:44.800Z,934.88
2017-09-06T00:24:12.852Z,934.89
2017-09-06T00:24:40.789Z,934.86
2017-09-06T00:25:08.937Z,934.89
2017-09-06T00:25:37.058Z,934.86
2017-09-06T00:26:05.044Z,934.88
2017-09-06T00:26:33.092Z,934.86
2017-09-06T00:27:00.938Z,934.85
2017-09-06T00:27:28.936Z,934.86
2017-09-06T00:27:56.897Z,934.86
2017-09-06T00:28:25.288Z,934.84
2017-09-06T00:28:53.338Z,934.83
2017-09-06T00:29:21.378Z,934.86
2017-09-06T00:29:49.518Z,934.85
2017-09-06T00:30:17.578Z,934.85
2017-09-06T00:30:45.605Z,934.86
2017-09-06T00:31:13.721Z,934.85
2017-09-06T00:31:41.644Z,934.82
2017-09-06T00:32:09.816Z,934.86
2017-09-06T00:32:38.017Z,934.85
2017-09-06T00:33:06.053Z,934.83
2017-09-06T00:33:34.108Z,934.85
2017-09-06T00:34:02.237Z,934.84
2017-09-06T00:34:30.281Z,934.84
2017-09-06T00:34:58.299Z,934.86
2017-09-06T00:35:26.485Z,934.82
2017-09-06T00:35:54.549Z,934.82
2017-09-06T00:36:22.739Z,934.82
2017-09-06T00:36:50.880Z,934.82
2017-09-06T00:37:18.947Z,934.83
2017-09-06T00:37:46.933Z,934.83
2017-09-06T00:38:14.874Z,934.81
2017-09-06T00:38:42.938Z,934.85
2017-09-06T00:39:10.969Z,934.8
2017-09-06T00:39:39.010Z,934.84
2017-09-06T00:40:07.135Z,934.83
2017-09-06T00:40:35.308Z,934.82
2017-09-06T00:41:03.429Z,934.83
2017-09-06T00:41:31.403Z,934.85
2017-09-06T00:41:59.354Z,934.84
2017-09-06T00:42:27.413Z,934.85
2017-09-06T00:42:55.429Z,934.87
2017-09-06T00:43:23.499Z,934.86
2017-09-06T00:43:51.631Z,934.9
2017-09-06T00:44:19.838Z,934.82
2017-09-06T00:44:48.014Z,934.85
2017-09-06T00:45:16.211Z,934.87
2017-09-06T00:45:44.287Z,934.84
2017-09-06T00:46:12.444Z,934.83
2017-09-06T00:46:40.662Z,934.83
2017-09-06T00:47:08.788Z,934.84
2017-09-06T00:47:36.824Z,934.83
2017-09-06T00:48:05.010Z,934.83
2017-09-06T00:48:33.173Z,934.86
2017-09-06T00:49:01.178Z,934.85
2017-09-06T00:49:29.323Z,934.82
2017-09-06T00:49:57.475Z,934.85
2017-09-06T00:50:25.600Z,934.82
2017-09-06T00:50:53.774Z,934.84
2017-09-06T00:51:21.916Z,934.81
2017-09-06T00:51:49.969Z,934.81
2017-09-06T00:52:18.015Z,934.8
2017-09-06T00:52:46.117Z,934.81
2017-09-06T00:53:14.279Z,934.81
2017-09-06T00:53:42.404Z,934.81
2017-09-06T00:54:10.355Z,934.81
2017-09-06T00:54:38.379Z,934.83
2017-09-06T00:55:06.515Z,934.79
2017-09-06T00:55:34.349Z,934.83
2017-09-06T00:56:02.368Z,934.83
2017-09-06T00:56:30.544Z,934.78
2017-09-06T00:56:58.704Z,934.82
2017-09-06T00:57:26.783Z,934.82
2017-09-06T00:57:54.818Z,934.82
2017-09-06T00:58:22.899Z,934.82
2017-09-06T00:58:50.982Z,934.84
2017-09-06T00:59:18.928Z,934.87
2017-09-06T00:59:46.999Z,934.85
2017-09-06T01:00:15.023Z,934.87
2017-09-06T01:00:43.027Z,934.83
2017-09-06T01:01:11.014Z,934.85
2017-09-06T01:01:38.954Z,934.86
2017-09-06T01:02:07.023Z,934.86
2017-09-06T01:02:35.130Z,934.87
2017-09-06T01:03:03.173Z,934.84
2017-09-06T01:03:31.203Z,934.87
2017-09-06T01:03:59.383Z,934.88
2017-09-06T01:04:27.452Z,934.88
2017-09-06T01:04:55.484Z,934.88
2017-09-06T01:05:23.534Z,934.91
2017-09-06T01:05:51.497Z,934.9
2017-09-06T01:06:19.524Z,934.92
2017-09-06T01:06:47.315Z,934.92
2017-09-06T01:07:15.479Z,934.94
2017-09-06T01:07:43.412Z,934.94
2017-09-06T01:08:11.479Z,934.93
2017-09-06T01:08:39.443Z,934.96
2017-09-06T01:09:07.678Z,934.96
2017-09-06T01:09:35.714Z,934.97
2017-09-06T01:10:03.893Z,934.96
2017-09-06T01:10:32.044Z,934.94
2017-09-06T01:11:00.175Z,934.97
2017-09-06T01:11:28.320Z,934.95
2017-09-06T01:11:56.369Z,934.96
2017-09-06T01:12:24.513Z,934.97
2017-09-06T01:12:52.624Z,934.96
2017-09-06T01:13:20.701Z,934.95
2017-09-06T01:13:48.826Z,934.96
2017-09-06T01:14:16.875Z,934.98
2017-09-06T01:14:44.820Z,934.96
2017-09-06T01:15:12.839Z,934.99
2017-09-06T01:15:41.005Z,934.96
2017-09-06T01:16:09.145Z,934.97
2017-09-06T01:16:37.125Z,935
2017-09-06T01:17:05.095Z,934.97
2017-09-06T01:17:33.156Z,934.96
2017-09-06T01:18:01.218Z,934.98
2017-09-06T01:18:29.374Z,934.97
2017-09-06T01:18:57.683Z,934.97
2017-09-06T01:19:25.743Z,934.99
2017-09-06T01:19:53.858Z,934.98
2017-09-06T01:20:22.055Z,935
2017-09-06T01:20:50.216Z,934.97
2017-09-06T01:21:18.390Z,934.97
2017-09-06T01:21:46.308Z,934.98
2017-09-06T01:22:14.410Z,934.95
2017-09-06T01:22:42.538Z,934.91
2017-09-06T01:23:10.600Z,934.94
2017-09-06T01:23:38.728Z,934.93
2017-09-06T01:24:06.985Z,934.97
2017-09-06T01:24:35.131Z,934.94
2017-09-06T01:25:03.259Z,934.97
2017-09-06T01:25:31.294Z,934.99
2017-09-06T01:25:59.373Z,934.97
2017-09-06T01:26:27.540Z,934.98
2017-09-06T01:26:55.462Z,934.99
2017-09-06T01:27:23.504Z,934.96
2017-09-06T01:27:51.658Z,934.96
2017-09-06T01:28:19.855Z,934.98
2017-09-06T01:28:48.025Z,935
2017-09-06T01:29:16.153Z,934.99
2017-09-06T01:29:44.199Z,935.04
2017-09-06T01:30:12.305Z,935.02
2017-09-06T01:30:40.346Z,935.01
2017-09-06T01:31:08.490Z,935.03
2017-09-06T01:31:36.521Z,935.04
2017-09-06T01:32:04.668Z,935.02
2017-09-06T01:32:32.684Z,935.04
2017-09-06T01:33:00.803Z,935.04
2017-09-06T01:33:28.946Z,934.99
2017-09-06T01:33:57.012Z,935.01
2017-09-06T01:34:25.144Z,935
2017-09-06T01:34:53.265Z,935.02
2017-09-06T01:35:21.251Z,935.01
2017-09-06T01:35:49.078Z,935.03
2017-09-06T01:36:17.227Z,935.02
2017-09-06T01:36:45.270Z,935.07
2017-09-06T01:37:13.318Z,935.03
2017-09-06T01:37:41.471Z,935.04
2017-09-06T01:38:09.402Z,935.04
2017-09-06T01:38:37.543Z,935.05
2017-09-06T01:39:05.817Z,935.06
2017-09-06T01:39:33.756Z,935.05
2017-09-06T01:40:01.788Z,935.07
2017-09-06T01:40:29.818Z,935.08
2017-09-06T01:40:57.892Z,935.06
2017-09-06T01:41:26.008Z,935.06
2017-09-06T01:41:54.076Z,935.05
2017-09-06T01:42:22.147Z,935.1
2017-09-06T01:42:50.162Z,935.07
2017-09-06T01:43:18.024Z,935.08
2017-09-06T01:43:46.189Z,935.07
2017-09-06T01:44:14.456Z,935.08
2017-09-06T01:44:42.517Z,935.07
2017-09-06T01:45:10.474Z,935.06
2017-09-06T01:45:38.556Z,935.08
2017-09-06T01:46:06.564Z,935.09
2017-09-06T01:46:34.535Z,935.1
2017-09-06T01:47:02.597Z,935.11
2017-09-06T01:47:30.641Z,935.11
2017-09-06T01:47:58.800Z,935.07
2017-09-06T01:48:26.819Z,935.09
2017-09-06T01:48:54.749Z,935.09
2017-09-06T01:49:22.882Z,935.07
2017-09-06T01:49:50.847Z,935.08
2017-09-06T01:50:18.920Z,935.11
2017-09-06T01:50:47.097Z,935.07
2017-09-06T01:51:15.051Z,935.06
2017-09-06T01:51:43.214Z,935.06
2017-09-06T01:52:11.367Z,935.11
2017-09-06T01:52:39.507Z,935.08
2017-09-06T01:53:07.547Z,935.05
2017-09-06T01:53:35.701Z,935.1
2017-09-06T01:54:03.818Z,935.08
2017-09-06T01:54:31.965Z,935.09
2017-09-06T01:54:59.979Z,935.1
2017-09-06T01:55:27.998Z,935.08
2017-09-06T01:55:56.114Z,935.05
2017-09-06T01:56:23.943Z,935.08
2017-09-06T01:56:52.078Z,935.05
2017-09-06T01:57:20.148Z,935.05
2017-09-06T01:57:48.287Z,935.05
2017-09-06T01:58:16.340Z,935.04
2017-09-06T01:58:44.356Z,935.03
2017-09-06T01:59:12.521Z,935.05
2017-09-06T01:59:40.713Z,935.02
2017-09-06T02:00:08.852Z,935.01
2017-09-06T02:00:36.910Z,935.03
2017-09-06T02:01:05.064Z,934.99
2017-09-06T02:01:33.115Z,934.97
2017-09-06T02:02:01.112Z,934.98
2017-09-06T02:02:29.162Z,934.98
2017-09-06T02:02:57.291Z,934.96
2017-09-06T02:03:25.546Z,934.94
2017-09-06T02:03:53.572Z,934.95
2017-09-06T02:04:21.718Z,934.94
2017-09-06T02:04:49.735Z,934.9
2017-09-06T02:05:17.773Z,934.94
2017-09-06T02:05:45.947Z,934.93
2017-09-06T02:06:14.062Z,934.95
2017-09-06T02:06:42.232Z,934.94
2017-09-06T02:07:10.365Z,934.93
2017-09-06T02:07:38.276Z,934.9
2017-09-06T02:08:06.317Z,934.96
2017-09-06T02:08:34.517Z,934.95
2017-09-06T02:09:02.592Z,934.94
2017-09-06T02:09:30.733Z,934.92
2017-09-06T02:09:58.863Z,934.94
2017-09-06T02:10:27.029Z,934.94
2017-09-06T02:10:54.985Z,934.92
2017-09-06T02:11:23.024Z,934.92
2017-09-06T02:11:51.180Z,934.93
2017-09-06T02:12:19.243Z,934.9
2017-09-06T02:12:47.350Z,934.92
2017-09-06T02:13:15.488Z,934.92
2017-09-06T02:13:43.447Z,934.94
2017-09-06T02:14:11.396Z,934.95
2017-09-06T02:14:39.594Z,934.97
2017-09-06T02:15:07.511Z,934.99
2017-09-06T02:15:35.611Z,934.96
2017-09-06T02:16:03.720Z,934.96
2017-09-06T02:16:31.679Z,934.99
2017-09-06T02:16:59.720Z,934.96
2017-09-06T02:17:27.753Z,934.98
2017-09-06T02:17:55.758Z,934.99
2017-09-06T02:18:23.880Z,934.97
2017-09-06T02:18:51.934Z,934.98
2017-09-06T02:19:20.141Z,934.98
2017-09-06T02:19:48.515Z,934.96
2017-09-06T02:20:16.647Z,934.95
2017-09-06T02:20:45.433Z,934.97
2017-09-06T02:21:13.349Z,934.97
2017-09-06T02:21:41.493Z,934.96
2017-09-06T02:22:09.430Z,934.95
2017-09-06T02:22:37.489Z,934.92
2017-09-06T02:23:05.524Z,934.97
2017-09-06T02:23:33.567Z,934.92
2017-09-06T02:24:01.634Z,934.92
2017-09-06T02:24:29.613Z,934.94
2017-09-06T02:24:57.804Z,934.93
2017-09-06T02:25:25.848Z,934.96
2017-09-06T02:25:53.973Z,934.93
2017-09-06T02:26:22.184Z,934.93
2017-09-06T02:26:50.208Z,934.95
2017-09-06T02:27:18.334Z,934.97
2017-09-06T02:27:46.199Z,935
2017-09-06T02:28:14.310Z,934.96
2017-09-06T02:28:42.501Z,934.99
2017-09-06T02:29:10.429Z,934.98
2017-09-06T02:29:38.716Z,934.95
2017-09-06T02:30:06.632Z,935
2017-09-06T02:30:34.686Z,935
2017-09-06T02:31:02.618Z,935.01
2017-09-06T02:31:30.666Z,935.02
2017-09-06T02:31:58.803Z,935.02
2017-09-06T02:32:26.638Z,935.02
2017-09-06T02:32:54.765Z,934.98
2017-09-06T02:33:23.344Z,934.99
2017-09-06T02:33:51.373Z,935
2017-09-06T02:34:19.555Z,935.01
2017-09-06T02:34:47.924Z,935.01
2017-09-06T02:35:16.219Z,934.98
2017-09-06T02:35:44.403Z,934.97
2017-09-06T02:36:12.561Z,934.97
2017-09-06T02:36:40.726Z,934.99
2017-09-06T02:37:08.827Z,934.97
2017-09-06T02:37:36.985Z,935
2017-09-06T02:38:05.067Z,935.01
2017-09-06T02:38:33.204Z,934.96
2017-09-06T02:39:01.248Z,934.94
2017-09-06T02:39:29.446Z,934.98
2017-09-06T02:39:57.672Z,934.98
2017-09-06T02:40:25.638Z,934.98
2017-09-06T02:40:53.701Z,934.96
2017-09-06T02:41:21.708Z,934.96
2017-09-06T02:41:49.893Z,934.94
2017-09-06T02:42:18.012Z,934.94
2017-09-06T02:42:46.166Z,934.95
2017-09-06T02:43:14.120Z,934.95
2017-09-06T02:43:42.057Z,934.97
2017-09-06T02:44:10.257Z,934.95
2017-09-06T02:44:38.449Z,934.92
2017-09-06T02:45:06.659Z,934.95
2017-09-06T02:45:34.767Z,934.94
2017-09-06T02:46:02.794Z,934.91
2017-09-06T02:46:31.034Z,934.91
2017-09-06T02:46:59.074Z,934.93
2017-09-06T02:47:27.223Z,934.91
2017-09-06T02:47:55.271Z,934.92
2017-09-06T02:48:23.486Z,934.91
2017-09-06T02:48:51.517Z,934.95
2017-09-06T02:49:19.710Z,934.96
2017-09-06T02:49:47.909Z,935.01
2017-09-06T02:50:16.163Z,935.07
2017-09-06T02:50:44.345Z,935.08
2017-09-06T02:51:12.563Z,935.14
2017-09-06T02:51:40.632Z,935.13
2017-09-06T02:52:08.621Z,935.11
2017-09-06T02:52:36.707Z,935.07
2017-09-06T02:53:05.025Z,935.09
2017-09-06T02:53:33.183Z,935.08
2017-09-06T02:54:01.379Z,935.08
2017-09-06T02:54:29.708Z,935.1
2017-09-06T02:54:57.940Z,935.06
2017-09-06T02:55:25.901Z,935.12
2017-09-06T02:55:53.935Z,935.09
2017-09-06T02:56:21.999Z,935.06
2017-09-06T02:56:50.068Z,935.11
2017-09-06T02:57:18.149Z,935.1
2017-09-06T02:57:46.276Z,935.15
2017-09-06T02:58:14.407Z,935.17
2017-09-06T02:58:42.463Z,935.18
2017-09-06T02:59:10.618Z,935.13
2017-09-06T02:59:38.677Z,935.11
2017-09-06T03:00:06.836Z,935.19
2017-09-06T03:00:34.884Z,935.14
2017-09-06T03:01:03.063Z,935.16
2017-09-06T03:01:31.196Z,935.12
2017-09-06T03:01:59.224Z,935.12
2017-09-06T03:02:27.102Z,935.08
2017-09-06T03:02:55.182Z,935.14
2017-09-06T03:03:23.332Z,935.12
2017-09-06T03:03:51.289Z,935.13
2017-09-06T03:04:19.367Z,935.13
2017-09-06T03:04:47.111Z,935.12
2017-09-06T03:05:15.360Z,935.12
2017-09-06T03:05:43.580Z,935.14
2017-09-06T03:06:11.511Z,935.13
2017-09-06T03:06:39.559Z,935.16
2017-09-06T03:07:07.643Z,935.14
2017-09-06T03:07:35.753Z,935.16
2017-09-06T03:08:03.843Z,935.15
2017-09-06T03:08:31.949Z,935.11
2017-09-06T03:08:59.966Z,935.15
2017-09-06T03:09:28.106Z,935.12
2017-09-06T03:09:56.165Z,935.11
2017-09-06T03:10:24.302Z,935.09
2017-09-06T03:10:52.371Z,935.09
2017-09-06T03:11:20.503Z,935.07
2017-09-06T03:11:48.640Z,935.09
2017-09-06T03:12:16.674Z,935.1
2017-09-06T03:12:44.825Z,935.07
2017-09-06T03:13:12.778Z,935.07
2017-09-06T03:13:40.738Z,935.05
2017-09-06T03:14:08.859Z,935.08
2017-09-06T03:14:37.018Z,935.11
2017-09-06T03:15:05.178Z,935.07
2017-09-06T03:15:33.432Z,935.1
2017-09-06T03:16:01.378Z,935.07
2017-09-06T03:16:29.214Z,935.06
2017-09-06T03:16:57.269Z,935.06
2017-09-06T03:17:25.335Z,935.08
2017-09-06T03:19:32.769Z,935.08
2017-09-06T03:20:00.878Z,935.1
2017-09-06T03:20:29.316Z,935.11
2017-09-06T03:20:57.526Z,935.09
2017-09-06T03:21:25.787Z,935.11
2017-09-06T03:21:53.818Z,935.09
2017-09-06T03:22:22.079Z,935.15
2017-09-06T03:22:50.175Z,935.16
2017-09-06T03:23:18.096Z,935.16
2017-09-06T03:23:46.333Z,935.12
2017-09-06T03:24:14.430Z,935.14
2017-09-06T03:24:42.534Z,935.2
2017-09-06T03:25:10.675Z,935.16
2017-09-06T03:25:38.912Z,935.12
2017-09-06T03:26:07.020Z,935.11
2017-09-06T03:26:35.185Z,935.19
2017-09-06T03:27:03.326Z,935.1
2017-09-06T03:27:31.547Z,935.14
2017-09-06T03:27:59.616Z,935.14
2017-09-06T03:28:27.812Z,935.16
2017-09-06T03:28:55.915Z,935.09
2017-09-06T03:29:24.112Z,935.18
2017-09-06T03:29:52.226Z,935.13
2017-09-06T03:30:20.472Z,935.19
2017-09-06T03:30:48.673Z,935.09
2017-09-06T03:31:16.913Z,935.13
2017-09-06T03:31:45.028Z,935.18
2017-09-06T03:32:13.217Z,935.14
2017-09-06T03:32:41.268Z,935.16
2017-09-06T03:33:09.364Z,935.19
2017-09-06T03:33:37.335Z,935.24
2017-09-06T03:34:05.317Z,935.1
2017-09-06T03:34:33.276Z,935.2
2017-09-06T03:35:01.349Z,935.22
2017-09-06T03:35:29.819Z,935.23
2017-09-06T03:35:57.912Z,935.26
2017-09-06T03:36:26.213Z,935.23
2017-09-06T03:36:54.511Z,935.23
2017-09-06T03:37:22.776Z,935.31
2017-09-06T03:37:50.955Z,935.26
2017-09-06T03:38:19.076Z,935.25
2017-09-06T03:38:47.352Z,935.23
2017-09-06T03:39:15.528Z,935.28
2017-09-06T03:39:43.777Z,935.28
2017-09-06T03:40:11.890Z,935.26
2017-09-06T03:40:40.221Z,935.27
2017-09-06T03:41:08.515Z,935.26
2017-09-06T03:41:36.646Z,935.25
2017-09-06T03:42:04.948Z,935.21
2017-09-06T03:42:32.971Z,935.23
2017-09-06T03:43:01.105Z,935.26
2017-09-06T03:43:29.252Z,935.22
2017-09-06T03:43:57.376Z,935.21
2017-09-06T03:44:25.637Z,935.24
2017-09-06T03:44:53.741Z,935.21
2017-09-06T03:45:21.885Z,935.23
2017-09-06T03:45:50.053Z,935.19
2017-09-06T03:46:18.225Z,935.19
2017-09-06T03:46:46.352Z,935.23
2017-09-06T03:47:14.460Z,935.18
2017-09-06T03:47:42.471Z,935.17
2017-09-06T03:48:10.611Z,935.16
2017-09-06T03:48:38.815Z,935.19
2017-09-06T03:49:06.941Z,935.19
2017-09-06T03:49:35.063Z,935.16
2017-09-06T03:50:03.100Z,935.18
2017-09-06T03:50:31.258Z,935.16
2017-09-06T03:50:59.264Z,935.15
2017-09-06T03:51:27.395Z,935.16
2017-09-06T03:51:55.594Z,935.19
2017-09-06T03:52:23.837Z,935.19
2017-09-06T03:52:51.894Z,935.17
2017-09-06T03:53:19.924Z,935.19
2017-09-06T03:53:48.124Z,935.19
2017-09-06T03:54:16.372Z,935.17
2017-09-06T03:54:44.591Z,935.19
2017-09-06T03:55:12.658Z,935.13
2017-09-06T03:55:41.012Z,935.13
2017-09-06T03:56:09.253Z,935.12
2017-09-06T03:56:37.463Z,935.17
2017-09-06T03:57:05.737Z,935.17
2017-09-06T03:57:33.996Z,935.19
2017-09-06T03:58:02.124Z,935.13
2017-09-06T03:58:30.146Z,935.15
2017-09-06T03:58:58.356Z,935.11
2017-09-06T03:59:26.595Z,935.15
2017-09-06T03:59:54.826Z,935.13
2017-09-06T04:00:23.082Z,935.13
2017-09-06T04:00:51.238Z,935.13
2017-09-06T04:01:19.412Z,935.11
2017-09-06T04:01:47.568Z,935.11
2017-09-06T04:02:15.843Z,935.09
2017-09-06T04:02:43.953Z,935.15
2017-09-06T04:03:12.155Z,935.14
2017-09-06T04:03:40.291Z,935.12
2017-09-06T04:04:08.397Z,935.08
2017-09-06T04:04:36.635Z,935.09
2017-09-06T04:05:04.878Z,935.07
2017-09-06T04:05:33.030Z,935.1
2017-09-06T04:06:01.413Z,935.04
2017-09-06T04:06:29.610Z,935.06
2017-09-06T04:06:57.752Z,935.01
2017-09-06T04:07:25.986Z,935.06
2017-09-06T04:07:54.194Z,935.06
2017-09-06T04:08:22.313Z,935.06
2017-09-06T04:08:50.353Z,935.05
2017-09-06T04:09:18.598Z,935.05
2017-09-06T04:09:46.796Z,935.07
2017-09-06T04:10:14.902Z,935.08
2017-09-06T04:10:43.187Z,935.07
2017-09-06T04:11:11.412Z,935.12
2017-09-06T04:11:39.637Z,935.13
2017-09-06T04:12:07.753Z,935.09
2017-09-06T04:12:35.998Z,935.1
2017-09-06T04:13:04.150Z,935.1
2017-09-06T04:13:32.180Z,935.12
2017-09-06T04:14:00.453Z,935.1
2017-09-06T04:14:28.687Z,935.07
2017-09-06T04:14:56.911Z,935.09
2017-09-06T04:15:25.106Z,935.06
2017-09-06T04:15:53.231Z,935.08
2017-09-06T04:16:21.491Z,935.08
2017-09-06T04:16:49.729Z,935.04
2017-09-06T04:17:17.958Z,935.09
2017-09-06T04:17:46.201Z,935.05
2017-09-06T04:18:14.349Z,935.03
2017-09-06T04:18:42.587Z,935.03
2017-09-06T04:19:10.818Z,935.02
2017-09-06T04:19:38.982Z,935.04
2017-09-06T04:20:07.206Z,935.05
2017-09-06T04:20:35.250Z,935.01
2017-09-06T04:21:03.388Z,935
2017-09-06T04:21:31.663Z,935
2017-09-06T04:21:59.899Z,934.98
2017-09-06T04:22:28.080Z,934.96
2017-09-06T04:22:56.339Z,934.97
2017-09-06T04:23:24.605Z,934.94
2017-09-06T04:23:52.743Z,934.9
2017-09-06T04:24:20.885Z,934.93
2017-09-06T04:24:49.089Z,934.91
2017-09-06T04:25:17.204Z,934.91
2017-09-06T04:25:45.468Z,934.91
2017-09-06T04:26:13.707Z,934.92
2017-09-06T04:26:41.842Z,934.92
2017-09-06T04:27:09.980Z,934.94
2017-09-06T04:27:38.149Z,934.93
2017-09-06T04:28:06.155Z,934.94
2017-09-06T04:28:34.364Z,934.93
2017-09-06T04:29:02.513Z,934.91
2017-09-06T04:29:30.751Z,934.93
2017-09-06T04:29:58.848Z,934.94
2017-09-06T04:30:26.955Z,934.9
2017-09-06T04:30:55.153Z,934.94
2017-09-06T04:31:23.379Z,934.92
2017-09-06T04:31:51.397Z,934.88
2017-09-06T04:32:19.637Z,934.88
2017-09-06T04:32:47.757Z,934.88
2017-09-06T04:33:15.981Z,934.88
2017-09-06T04:33:44.201Z,934.85
2017-09-06T04:34:12.313Z,934.86
2017-09-06T04:34:40.571Z,934.84
2017-09-06T04:35:08.689Z,934.88
2017-09-06T04:35:36.831Z,934.87
2017-09-06T04:36:05.443Z,934.85
2017-09-06T04:36:33.853Z,934.84
2017-09-06T04:37:02.066Z,934.85
2017-09-06T04:37:30.314Z,934.86
2017-09-06T04:37:58.564Z,934.88
2017-09-06T04:38:26.677Z,934.86
2017-09-06T04:38:54.922Z,934.88
2017-09-06T04:39:22.935Z,934.85
2017-09-06T04:39:51.078Z,934.9
2017-09-06T04:40:19.103Z,934.9
2017-09-06T04:40:47.055Z,934.91
2017-09-06T04:41:15.191Z,934.88
2017-09-06T04:41:43.587Z,934.91
2017-09-06T04:42:11.849Z,934.88
2017-09-06T04:42:40.096Z,934.9
2017-09-06T04:43:08.258Z,934.86
2017-09-06T04:43:36.478Z,934.89
2017-09-06T04:44:04.577Z,934.88
2017-09-06T04:44:32.798Z,934.9
2017-09-06T04:45:00.845Z,934.91
2017-09-06T04:45:29.144Z,934.88
2017-09-06T04:45:57.296Z,934.92
2017-09-06T04:46:25.750Z,934.89
2017-09-06T04:46:54.022Z,934.88
2017-09-06T04:47:22.292Z,934.9
2017-09-06T04:47:50.413Z,934.94
2017-09-06T04:48:18.573Z,934.9
2017-09-06T04:48:46.716Z,934.89
2017-09-06T04:49:14.831Z,934.93
2017-09-06T04:49:42.878Z,934.91
2017-09-06T04:50:10.801Z,934.89
2017-09-06T04:50:39.082Z,934.89
2017-09-06T04:51:07.239Z,934.95
2017-09-06T04:51:35.570Z,934.92
2017-09-06T04:52:03.698Z,934.92
2017-09-06T04:52:31.842Z,934.92
2017-09-06T04:53:00.005Z,934.89
2017-09-06T04:53:28.211Z,934.86
2017-09-06T04:53:56.454Z,934.92
2017-09-06T04:54:24.491Z,934.81
2017-09-06T04:54:52.769Z,934.83
2017-09-06T04:55:20.952Z,934.83
2017-09-06T04:55:49.199Z,934.83
2017-09-06T04:56:17.360Z,934.79
2017-09-06T04:56:45.644Z,934.8
2017-09-06T04:57:13.896Z,934.8
2017-09-06T04:57:42.130Z,934.81
2017-09-06T04:58:10.413Z,934.79
2017-09-06T04:58:38.449Z,934.81
2017-09-06T04:59:06.501Z,934.84
2017-09-06T04:59:34.713Z,934.84
2017-09-06T05:00:02.919Z,934.82
2017-09-06T05:00:31.180Z,934.82
2017-09-06T05:00:59.134Z,934.82
2017-09-06T05:01:27.353Z,934.81
2017-09-06T05:01:55.672Z,934.76
2017-09-06T05:02:23.909Z,934.79
2017-09-06T05:02:51.923Z,934.78
2017-09-06T05:03:20.199Z,934.79
2017-09-06T05:03:48.231Z,934.82
2017-09-06T05:04:16.435Z,934.83
2017-09-06T05:04:44.645Z,934.82
2017-09-06T05:05:12.858Z,934.83
2017-09-06T05:05:41.014Z,934.81
2017-09-06T05:06:09.156Z,934.8
2017-09-06T05:06:37.277Z,934.8
2017-09-06T05:07:05.617Z,934.77
2017-09-06T05:07:33.752Z,934.79
2017-09-06T05:08:01.963Z,934.76
2017-09-06T05:08:29.917Z,934.73
2017-09-06T05:08:57.969Z,934.72
2017-09-06T05:09:25.986Z,934.69
2017-09-06T05:09:53.933Z,934.71
2017-09-06T05:10:22.068Z,934.7
2017-09-06T05:10:50.318Z,934.71
2017-09-06T05:11:18.359Z,934.68
2017-09-06T05:11:46.754Z,934.73
2017-09-06T05:12:14.949Z,934.69
2017-09-06T05:12:43.117Z,934.69
2017-09-06T05:13:11.291Z,934.68
2017-09-06T05:13:39.528Z,934.64
2017-09-06T05:14:07.687Z,934.69
2017-09-06T05:14:35.923Z,934.66
2017-09-06T05:15:04.148Z,934.65
2017-09-06T05:15:32.371Z,934.64
2017-09-06T05:16:00.594Z,934.66
2017-09-06T05:16:28.749Z,934.63
2017-09-06T05:16:57.004Z,934.64
2017-09-06T05:17:25.242Z,934.63
2017-09-06T05:17:53.456Z,934.61
2017-09-06T05:18:21.608Z,934.6
2017-09-06T05:18:49.718Z,934.62
2017-09-06T05:19:17.748Z,934.62
2017-09-06T05:19:45.962Z,934.63
2017-09-06T05:20:14.183Z,934.61
2017-09-06T05:20:42.427Z,934.61
2017-09-06T05:21:10.582Z,934.61
2017-09-06T05:21:38.794Z,934.61
2017-09-06T05:22:07.046Z,934.58
2017-09-06T05:22:35.200Z,934.56
2017-09-06T05:23:03.478Z,934.6
2017-09-06T05:23:31.700Z,934.57
2017-09-06T05:23:59.717Z,934.55
2017-09-06T05:24:27.836Z,934.55
2017-09-06T05:24:56.081Z,934.55
2017-09-06T05:25:24.301Z,934.5
2017-09-06T05:25:52.415Z,934.48
2017-09-06T05:26:20.549Z,934.49
2017-09-06T05:26:48.701Z,934.48
2017-09-06T05:27:17.044Z,934.47
2017-09-06T05:27:45.212Z,934.46
2017-09-06T05:28:13.341Z,934.47
2017-09-06T05:28:41.477Z,934.44
2017-09-06T05:29:09.746Z,934.45
2017-09-06T05:29:37.880Z,934.46
2017-09-06T05:30:06.007Z,934.43
2017-09-06T05:30:34.247Z,934.47
2017-09-06T05:31:02.464Z,934.46
2017-09-06T05:31:30.452Z,934.44
2017-09-06T05:31:58.665Z,934.45
2017-09-06T05:32:26.885Z,934.46
2017-09-06T05:32:55.084Z,934.43
2017-09-06T05:33:23.347Z,934.47
2017-09-06T05:33:51.606Z,934.43
2017-09-06T05:34:19.832Z,934.45
2017-09-06T05:34:48.072Z,934.48
2017-09-06T05:35:16.295Z,934.43
2017-09-06T05:35:44.435Z,934.47
2017-09-06T05:36:12.680Z,934.47
2017-09-06T05:36:40.963Z,934.43
2017-09-06T05:37:09.128Z,934.45
2017-09-06T05:37:37.167Z,934.48
2017-09-06T05:38:05.150Z,934.48
2017-09-06T05:38:33.380Z,934.47
2017-09-06T05:39:01.596Z,934.47
2017-09-06T05:39:29.738Z,934.47
2017-09-06T05:39:57.834Z,934.46
2017-09-06T05:40:26.077Z,934.44
2017-09-06T05:40:54.167Z,934.43
2017-09-06T05:41:22.201Z,934.45
2017-09-06T05:41:50.459Z,934.45
2017-09-06T05:42:18.598Z,934.46
2017-09-06T05:42:46.699Z,934.43
2017-09-06T05:43:14.931Z,934.49
2017-09-06T05:43:43.152Z,934.44
2017-09-06T05:44:11.386Z,934.43
2017-09-06T05:44:39.648Z,934.46
2017-09-06T05:45:07.856Z,934.43
2017-09-06T05:45:35.943Z,934.42
2017-09-06T05:46:04.206Z,934.4
2017-09-06T05:46:32.358Z,934.37
2017-09-06T05:47:00.563Z,934.4
2017-09-06T05:47:28.880Z,934.33
2017-09-06T05:47:57.091Z,934.37
2017-09-06T05:48:25.182Z,934.34
2017-09-06T05:48:53.236Z,934.36
2017-09-06T05:49:21.360Z,934.35
2017-09-06T05:49:49.579Z,934.37
2017-09-06T05:50:17.695Z,934.35
2017-09-06T05:50:45.905Z,934.36
2017-09-06T05:51:14.153Z,934.34
2017-09-06T05:51:42.354Z,934.35
2017-09-06T05:52:10.516Z,934.36
2017-09-06T05:52:38.675Z,934.36
2017-09-06T05:53:06.724Z,934.34
2017-09-06T05:53:34.861Z,934.34
2017-09-06T05:54:03.113Z,934.32